Terminal Aerodrome Forecast
Issued by NWS

Home | Current Version | Previous Version | Text Only | Print | Product List | Glossary On
Versions: 1 2 3 4 5 6 7 8 9 10 11 12 13 14 15
723
FTUS44 KCRP 271121
TAFALI
TAF
KALI 271121Z 2712/2812 15010KT P6SM OVC010
      TEMPO 2712/2714 5SM BR
     FM271400 18015G22KT P6SM SCT025 BKN250
      TEMPO 2714/2716 BKN025
     FM272000 14018G25KT P6SM FEW040 SCT250
     FM280300 15012KT P6SM OVC018
     FM280800 15010KT 5SM BR OVC012=

USA.gov is the U.S. government's official web portal to all federal, state and local government web resources and services.